createdAt,value
2019-05-14T00:00:11.572Z,4.14
2019-05-14T00:01:11.991Z,4.07
2019-05-14T00:02:12.228Z,4.06
2019-05-14T00:03:11.538Z,3.98
2019-05-14T00:04:11.709Z,3.89
2019-05-14T00:05:12.158Z,3.83
2019-05-14T00:06:11.655Z,3.68
2019-05-14T00:07:11.747Z,3.72
2019-05-14T00:08:11.546Z,3.52
2019-05-14T00:09:12.131Z,3.52
2019-05-14T00:10:11.861Z,3.46
2019-05-14T00:11:13.015Z,3.30
2019-05-14T00:12:11.623Z,3.18
2019-05-14T00:13:12.052Z,3.23
2019-05-14T00:14:11.779Z,2.98
2019-05-14T00:15:11.402Z,3.07
2019-05-14T00:16:11.910Z,2.94
2019-05-14T00:17:11.556Z,3.03
2019-05-14T00:18:11.815Z,2.94
2019-05-14T00:19:11.383Z,2.95
2019-05-14T00:20:13.348Z,3.03
2019-05-14T00:21:12.160Z,2.91
2019-05-14T00:22:11.755Z,2.95
2019-05-14T00:23:11.824Z,2.98
2019-05-14T00:24:11.532Z,2.94
2019-05-14T00:25:11.797Z,3.07
2019-05-14T00:26:12.146Z,3.06
2019-05-14T00:27:11.665Z,3.27
2019-05-14T00:28:11.790Z,3.25
2019-05-14T00:29:11.536Z,3.21
2019-05-14T00:30:11.568Z,3.16
2019-05-14T00:31:12.131Z,3.03
2019-05-14T00:32:11.504Z,3.05
2019-05-14T00:33:11.610Z,3.10
2019-05-14T00:34:11.342Z,3.06
2019-05-14T00:35:11.295Z,3.07
2019-05-14T00:36:11.355Z,3.10
2019-05-14T00:37:11.674Z,3.09
2019-05-14T00:38:11.912Z,3.06
2019-05-14T00:39:11.419Z,2.91
2019-05-14T00:40:11.794Z,2.79
2019-05-14T00:41:11.221Z,2.81
2019-05-14T00:42:12.584Z,2.91
2019-05-14T00:43:11.459Z,3.09
2019-05-14T00:44:13.349Z,3.21
2019-05-14T00:45:11.543Z,3.27
2019-05-14T00:46:11.861Z,3.39
2019-05-14T00:47:11.313Z,3.50
2019-05-14T00:48:12.941Z,3.52
2019-05-14T00:49:11.894Z,3.54
2019-05-14T00:50:11.397Z,3.67
2019-05-14T00:51:11.145Z,3.64
2019-05-14T00:52:11.679Z,3.68
2019-05-14T00:53:11.792Z,3.64
2019-05-14T00:54:11.294Z,3.82
2019-05-14T00:55:11.770Z,3.80
2019-05-14T00:56:11.149Z,3.90
2019-05-14T00:57:11.953Z,3.97
2019-05-14T00:58:11.305Z,3.96
2019-05-14T00:59:11.448Z,4.08
2019-05-14T01:00:11.638Z,4.15
2019-05-14T01:01:11.820Z,4.22
2019-05-14T01:02:11.588Z,4.19
2019-05-14T01:03:11.143Z,4.16
2019-05-14T01:04:11.761Z,4.16
2019-05-14T01:05:12.360Z,4.19
2019-05-14T01:06:11.377Z,4.32
2019-05-14T01:07:11.868Z,4.39
2019-05-14T01:08:11.991Z,4.46
2019-05-14T01:09:11.451Z,4.44
2019-05-14T01:10:11.630Z,4.44
2019-05-14T01:11:11.863Z,4.44
2019-05-14T01:12:12.156Z,4.46
2019-05-14T01:13:11.209Z,4.47
2019-05-14T01:14:12.256Z,4.44
2019-05-14T01:15:14.078Z,4.42
2019-05-14T01:16:12.035Z,4.44
2019-05-14T01:17:11.316Z,4.51
2019-05-14T01:18:11.363Z,4.43
2019-05-14T01:19:12.397Z,4.39
2019-05-14T01:20:12.438Z,4.42
2019-05-14T01:21:11.669Z,4.43
2019-05-14T01:22:12.467Z,4.36
2019-05-14T01:23:11.528Z,4.40
2019-05-14T01:24:12.607Z,4.37
2019-05-14T01:25:12.003Z,4.39
2019-05-14T01:26:11.541Z,4.37
2019-05-14T01:27:12.485Z,4.36
2019-05-14T01:28:11.326Z,4.28
2019-05-14T01:29:11.929Z,4.33
2019-05-14T01:30:12.515Z,4.37
2019-05-14T01:31:11.341Z,4.42
2019-05-14T01:32:11.657Z,4.36
2019-05-14T01:33:11.890Z,4.36
2019-05-14T01:34:11.165Z,4.36
2019-05-14T01:35:12.109Z,4.36
2019-05-14T01:36:12.319Z,4.24
2019-05-14T01:37:11.730Z,4.19
2019-05-14T01:38:11.464Z,4.16
2019-05-14T01:39:12.141Z,4.10
2019-05-14T01:40:11.395Z,3.97
2019-05-14T01:41:11.830Z,3.97
2019-05-14T01:42:12.441Z,3.86
2019-05-14T01:43:11.528Z,3.89
2019-05-14T01:44:11.958Z,3.92
2019-05-14T01:45:21.895Z,3.88
2019-05-14T01:46:12.128Z,3.82
2019-05-14T01:47:12.442Z,3.79
2019-05-14T01:48:11.679Z,3.65
2019-05-14T01:49:12.051Z,3.65
2019-05-14T01:50:11.339Z,3.64
2019-05-14T01:51:11.930Z,3.70
2019-05-14T01:52:11.225Z,3.65
2019-05-14T01:53:11.519Z,3.76
2019-05-14T01:54:11.957Z,3.67
2019-05-14T01:55:11.416Z,3.65
2019-05-14T01:56:11.958Z,3.64
2019-05-14T01:57:11.482Z,3.70
2019-05-14T01:58:11.522Z,3.53
2019-05-14T01:59:12.078Z,3.46
2019-05-14T02:00:11.450Z,3.25
2019-05-14T02:01:12.038Z,3.31
2019-05-14T02:02:11.546Z,3.25
2019-05-14T02:03:12.155Z,3.24
2019-05-14T02:04:11.627Z,3.25
2019-05-14T02:05:12.248Z,3.23
2019-05-14T02:06:11.866Z,3.13
2019-05-14T02:07:11.538Z,3.18
2019-05-14T02:08:12.129Z,3.16
2019-05-14T02:09:11.118Z,3.09
2019-05-14T02:10:11.631Z,3.09
2019-05-14T02:11:12.078Z,3.09
2019-05-14T02:12:11.656Z,2.95
2019-05-14T02:13:12.094Z,3.12
2019-05-14T02:14:11.675Z,3.18
2019-05-14T02:15:12.019Z,3.15
2019-05-14T02:16:12.939Z,3.18
2019-05-14T02:17:12.184Z,3.18
2019-05-14T02:18:11.127Z,3.23
2019-05-14T02:19:11.523Z,3.20
2019-05-14T02:20:12.334Z,3.13
2019-05-14T02:21:11.828Z,3.09
2019-05-14T02:22:11.265Z,2.91
2019-05-14T02:23:11.855Z,3.00
2019-05-14T02:24:11.334Z,3.06
2019-05-14T02:25:11.661Z,2.98
2019-05-14T02:26:11.414Z,3.03
2019-05-14T02:27:12.090Z,3.09
2019-05-14T02:28:11.546Z,3.12
2019-05-14T02:29:12.299Z,3.24
2019-05-14T02:30:09.872Z,3.24
2019-05-14T02:31:09.872Z,3.16
2019-05-14T02:32:10.702Z,3.33
2019-05-14T02:33:09.841Z,3.30
2019-05-14T02:34:10.328Z,3.36
2019-05-14T02:35:10.295Z,3.31
2019-05-14T02:36:10.542Z,3.31
2019-05-14T02:37:09.808Z,3.20
2019-05-14T02:38:10.414Z,3.33
2019-05-14T02:39:10.407Z,3.24
2019-05-14T02:40:10.075Z,3.33
2019-05-14T02:41:10.126Z,3.23
2019-05-14T02:42:09.957Z,3.24
2019-05-14T02:43:09.826Z,3.31
2019-05-14T02:44:10.149Z,3.28
2019-05-14T02:45:09.710Z,3.24
2019-05-14T02:46:13.048Z,3.05
2019-05-14T02:47:10.691Z,3.05
2019-05-14T02:48:09.694Z,2.92
2019-05-14T02:49:10.625Z,2.88
2019-05-14T02:50:10.261Z,2.91
2019-05-14T02:51:10.471Z,2.77
2019-05-14T02:52:10.369Z,2.84
2019-05-14T02:53:10.435Z,2.74
2019-05-14T02:54:10.171Z,2.67
2019-05-14T02:55:09.737Z,2.94
2019-05-14T02:56:10.546Z,3.00
2019-05-14T02:57:10.662Z,2.98
2019-05-14T02:58:10.136Z,2.97
2019-05-14T02:59:09.956Z,2.84
2019-05-14T03:00:10.422Z,2.69
2019-05-14T03:01:09.695Z,2.63
2019-05-14T03:02:10.379Z,2.59
2019-05-14T03:03:09.964Z,2.49
2019-05-14T03:04:09.481Z,2.52
2019-05-14T03:05:09.934Z,2.44
2019-05-14T03:06:09.687Z,2.40
2019-05-14T03:07:10.826Z,2.35
2019-05-14T03:08:09.501Z,2.35
2019-05-14T03:09:09.925Z,2.37
2019-05-14T03:10:10.219Z,2.35
2019-05-14T03:11:09.666Z,2.56
2019-05-14T03:12:10.205Z,2.58
2019-05-14T03:13:09.681Z,2.56
2019-05-14T03:14:09.434Z,2.58
2019-05-14T03:15:09.843Z,2.56
2019-05-14T03:16:22.215Z,2.69
2019-05-14T03:17:10.942Z,2.76
2019-05-14T03:18:09.473Z,2.79
2019-05-14T03:19:09.911Z,2.81
2019-05-14T03:20:09.494Z,2.84
2019-05-14T03:21:09.522Z,2.84
2019-05-14T03:22:10.276Z,2.87
2019-05-14T03:23:15.626Z,2.91
2019-05-14T03:24:10.261Z,2.94
2019-05-14T03:25:10.136Z,2.91
2019-05-14T03:26:09.722Z,2.79
2019-05-14T03:27:09.925Z,2.79
2019-05-14T03:28:09.478Z,2.82
2019-05-14T03:29:10.113Z,2.77
2019-05-14T03:30:12.776Z,2.66
2019-05-14T03:31:12.710Z,2.66
2019-05-14T03:32:12.800Z,2.66
2019-05-14T03:33:13.262Z,2.73
2019-05-14T03:34:13.611Z,2.64
2019-05-14T03:35:13.606Z,2.69
2019-05-14T03:36:17.344Z,2.77
2019-05-14T03:37:12.733Z,2.84
2019-05-14T03:38:09.528Z,2.87
2019-05-14T03:39:10.500Z,2.92
2019-05-14T03:40:09.511Z,2.91
2019-05-14T03:41:10.699Z,3.07
2019-05-14T03:42:09.764Z,3.12
2019-05-14T03:43:09.148Z,3.03
2019-05-14T03:44:09.845Z,3.15
2019-05-14T03:45:09.023Z,3.20
2019-05-14T03:46:09.794Z,3.24
2019-05-14T03:47:10.302Z,3.20
2019-05-14T03:48:10.290Z,3.23
2019-05-14T03:49:09.457Z,3.28
2019-05-14T03:50:10.173Z,3.28
2019-05-14T03:51:09.218Z,3.28
2019-05-14T03:52:09.624Z,3.30
2019-05-14T03:53:10.175Z,3.36
2019-05-14T03:54:12.565Z,3.34
2019-05-14T03:55:09.679Z,3.44
2019-05-14T03:56:10.321Z,3.43
2019-05-14T03:57:09.447Z,3.42
2019-05-14T03:58:09.910Z,3.46
2019-05-14T03:59:09.781Z,3.44
2019-05-14T04:00:10.336Z,3.57
2019-05-14T04:01:09.636Z,3.60
2019-05-14T04:02:09.750Z,3.40
2019-05-14T04:03:09.667Z,3.23
2019-05-14T04:04:10.171Z,2.81
2019-05-14T04:05:09.694Z,2.58
2019-05-14T04:06:10.075Z,2.52
2019-05-14T04:07:09.834Z,2.26
2019-05-14T04:08:09.691Z,2.17
2019-05-14T04:09:09.642Z,2.02
2019-05-14T04:10:10.297Z,2.02
2019-05-14T04:11:09.549Z,1.97
2019-05-14T04:12:10.063Z,1.93
2019-05-14T04:13:09.138Z,1.98
2019-05-14T04:14:09.744Z,1.98
2019-05-14T04:15:09.809Z,1.91
2019-05-14T04:16:09.490Z,2.04
2019-05-14T04:17:13.894Z,2.13
2019-05-14T04:18:09.692Z,1.99
2019-05-14T04:19:09.983Z,2.04
2019-05-14T04:20:09.685Z,2.09
2019-05-14T04:21:10.103Z,2.19
2019-05-14T04:22:10.146Z,2.35
2019-05-14T04:23:09.430Z,2.40
2019-05-14T04:24:09.769Z,2.41
2019-05-14T04:25:10.978Z,2.49
2019-05-14T04:26:09.338Z,2.69
2019-05-14T04:27:12.834Z,2.64
2019-05-14T04:28:09.833Z,2.67
2019-05-14T04:29:10.166Z,2.76
2019-05-14T04:30:09.468Z,2.81
2019-05-14T04:31:09.832Z,2.89
2019-05-14T04:32:09.454Z,2.87
2019-05-14T04:33:10.618Z,2.94
2019-05-14T04:34:10.760Z,3.06
2019-05-14T04:35:09.568Z,3.10
2019-05-14T04:36:09.991Z,3.07
2019-05-14T04:37:09.689Z,3.27
2019-05-14T04:38:09.643Z,3.23
2019-05-14T04:39:09.426Z,3.30
2019-05-14T04:40:09.991Z,3.39
2019-05-14T04:41:10.355Z,3.39
2019-05-14T04:42:09.555Z,3.43
2019-05-14T04:43:10.219Z,3.42
2019-05-14T04:44:09.791Z,3.46
2019-05-14T04:45:11.030Z,3.54
2019-05-14T04:46:10.379Z,3.53
2019-05-14T04:47:22.946Z,3.67
2019-05-14T04:48:27.066Z,3.70
2019-05-14T04:49:09.890Z,3.71
2019-05-14T04:50:10.518Z,3.80
2019-05-14T04:51:09.792Z,3.82
2019-05-14T04:52:09.985Z,3.86
2019-05-14T04:53:09.027Z,3.86
2019-05-14T04:54:09.461Z,3.96
2019-05-14T04:55:09.869Z,3.92
2019-05-14T04:56:09.865Z,4.07
2019-05-14T04:57:10.306Z,4.18
2019-05-14T04:58:10.138Z,4.22
2019-05-14T04:59:10.456Z,4.22
2019-05-14T05:00:11.707Z,4.28
2019-05-14T05:01:09.814Z,4.28
2019-05-14T05:02:09.560Z,4.36
2019-05-14T05:03:12.316Z,4.47
2019-05-14T05:04:09.571Z,4.43
2019-05-14T05:05:09.080Z,4.54
2019-05-14T05:06:09.864Z,4.59
2019-05-14T05:07:09.940Z,4.64
2019-05-14T05:08:09.074Z,4.67
2019-05-14T05:09:09.377Z,4.67
2019-05-14T05:10:10.198Z,4.79
2019-05-14T05:11:09.363Z,4.86
2019-05-14T05:12:09.098Z,4.91
2019-05-14T05:13:09.223Z,4.95
2019-05-14T05:14:08.865Z,5.07
2019-05-14T05:15:09.301Z,5.13
2019-05-14T05:16:09.891Z,5.17
2019-05-14T05:17:09.253Z,5.17
2019-05-14T05:18:09.597Z,5.25
2019-05-14T05:19:10.392Z,5.22
2019-05-14T05:20:09.921Z,5.28
2019-05-14T05:21:08.777Z,5.34
2019-05-14T05:22:08.143Z,5.31
2019-05-14T05:23:08.518Z,5.38
2019-05-14T05:24:09.169Z,5.46
2019-05-14T05:25:08.423Z,5.49
2019-05-14T05:26:09.144Z,5.57
2019-05-14T05:27:09.318Z,5.64
2019-05-14T05:28:08.828Z,5.68
2019-05-14T05:29:10.364Z,5.71
2019-05-14T05:30:08.576Z,5.78
2019-05-14T05:31:09.332Z,5.95
2019-05-14T05:32:08.669Z,5.95
2019-05-14T05:33:09.077Z,6.09
2019-05-14T05:34:08.969Z,6.14
2019-05-14T05:35:09.497Z,6.26
2019-05-14T05:36:09.443Z,6.40
2019-05-14T05:37:08.616Z,6.48
2019-05-14T05:38:08.745Z,6.63
2019-05-14T05:39:08.654Z,6.68
2019-05-14T05:40:09.159Z,7.08
2019-05-14T05:41:08.849Z,7.42
2019-05-14T05:42:09.231Z,7.89
2019-05-14T05:43:08.947Z,8.30
2019-05-14T05:44:08.243Z,8.47
2019-05-14T05:45:08.188Z,8.91
2019-05-14T05:46:08.670Z,9.16
2019-05-14T05:47:09.230Z,9.70
2019-05-14T05:48:08.204Z,10.01
2019-05-14T05:49:08.132Z,10.30
2019-05-14T05:50:08.749Z,10.58
2019-05-14T05:51:09.111Z,11.02
2019-05-14T05:52:08.499Z,11.36
2019-05-14T05:53:09.027Z,11.53
2019-05-14T05:54:09.210Z,11.53
2019-05-14T05:55:08.906Z,11.77
2019-05-14T05:56:08.934Z,12.20
2019-05-14T05:57:09.334Z,12.31
2019-05-14T05:58:08.681Z,12.34
2019-05-14T05:59:09.571Z,12.29
2019-05-14T06:00:09.403Z,12.30
2019-05-14T06:01:09.602Z,12.02
2019-05-14T06:02:09.398Z,12.20
2019-05-14T06:03:10.945Z,12.26
2019-05-14T06:04:08.705Z,12.37
2019-05-14T06:05:08.114Z,12.62
2019-05-14T06:06:13.270Z,12.63
2019-05-14T06:07:08.964Z,13.00
2019-05-14T06:08:08.651Z,13.04
2019-05-14T06:09:08.959Z,13.25
2019-05-14T06:10:08.029Z,13.36
2019-05-14T06:11:08.399Z,13.49
2019-05-14T06:12:08.669Z,13.52
2019-05-14T06:13:08.892Z,13.59
2019-05-14T06:14:08.353Z,13.67
2019-05-14T06:15:08.727Z,13.77
2019-05-14T06:16:09.497Z,13.63
2019-05-14T06:17:08.570Z,13.73
2019-05-14T06:18:15.099Z,13.63
2019-05-14T06:19:08.450Z,13.43
2019-05-14T06:20:08.601Z,13.25
2019-05-14T06:21:09.144Z,13.29
2019-05-14T06:22:09.564Z,13.25
2019-05-14T06:23:08.458Z,13.38
2019-05-14T06:24:09.057Z,13.14
2019-05-14T06:25:10.999Z,13.29
2019-05-14T06:26:11.550Z,13.46
2019-05-14T06:27:09.287Z,13.77
2019-05-14T06:28:08.632Z,13.91
2019-05-14T06:29:08.377Z,13.79
2019-05-14T06:30:09.124Z,13.51
2019-05-14T06:31:09.904Z,13.24
2019-05-14T06:32:09.279Z,13.58
2019-05-14T06:33:09.262Z,13.84
2019-05-14T06:34:09.536Z,14.13
2019-05-14T06:35:08.792Z,13.99
2019-05-14T06:36:08.711Z,13.74
2019-05-14T06:37:08.358Z,13.74
2019-05-14T06:38:08.932Z,13.70
2019-05-14T06:39:09.129Z,13.61
2019-05-14T06:40:08.862Z,13.38
2019-05-14T06:41:08.472Z,13.30
2019-05-14T06:42:08.808Z,13.69
2019-05-14T06:43:09.114Z,13.63
2019-05-14T06:44:09.047Z,13.98
2019-05-14T06:45:09.032Z,14.06
2019-05-14T06:46:09.019Z,14.24
2019-05-14T06:47:09.195Z,14.01
2019-05-14T06:48:08.735Z,14.13
2019-05-14T06:49:09.117Z,13.98
2019-05-14T06:50:08.593Z,13.94
2019-05-14T06:51:08.787Z,14.02
2019-05-14T06:52:08.768Z,13.76
2019-05-14T06:53:08.503Z,13.87
2019-05-14T06:54:09.061Z,13.77
2019-05-14T06:55:08.973Z,13.81
2019-05-14T06:56:08.136Z,13.70
2019-05-14T06:57:08.828Z,14.01
2019-05-14T06:58:08.998Z,13.89
2019-05-14T06:59:08.998Z,14.29
2019-05-14T07:00:08.339Z,14.39
2019-05-14T07:01:09.256Z,14.53
2019-05-14T07:02:08.759Z,14.32
2019-05-14T07:03:08.927Z,14.46
2019-05-14T07:04:08.825Z,13.91
2019-05-14T07:05:08.412Z,13.49
2019-05-14T07:06:08.910Z,13.59
2019-05-14T07:07:08.456Z,13.62
2019-05-14T07:08:08.916Z,13.59
2019-05-14T07:09:08.203Z,13.76
2019-05-14T07:10:08.888Z,14.02
2019-05-14T07:11:08.507Z,13.27
2019-05-14T07:12:08.984Z,13.55
2019-05-14T07:13:08.634Z,14.14
2019-05-14T07:14:10.935Z,14.44
2019-05-14T07:15:09.036Z,14.24
2019-05-14T07:16:08.722Z,14.37
2019-05-14T07:17:08.876Z,14.81
2019-05-14T07:18:08.643Z,14.91
2019-05-14T07:19:06.564Z,15.21
2019-05-14T07:20:08.684Z,15.56
2019-05-14T07:21:08.242Z,14.49
2019-05-14T07:22:08.707Z,14.78
2019-05-14T07:23:08.160Z,15.06
2019-05-14T07:24:08.783Z,14.56
2019-05-14T07:25:09.525Z,14.88
2019-05-14T07:26:08.403Z,14.84
2019-05-14T07:27:09.224Z,15.33
2019-05-14T07:28:08.714Z,15.51
2019-05-14T07:29:11.214Z,15.75
2019-05-14T07:30:08.962Z,16.25
2019-05-14T07:31:06.419Z,16.56
2019-05-14T07:32:08.762Z,16.15
2019-05-14T07:33:06.391Z,14.80
2019-05-14T07:34:08.713Z,14.56
2019-05-14T07:35:08.935Z,14.31
2019-05-14T07:36:08.611Z,13.73
2019-05-14T07:37:09.033Z,14.42
2019-05-14T07:38:08.774Z,15.23
2019-05-14T07:39:09.082Z,15.17
2019-05-14T07:40:08.467Z,14.31
2019-05-14T07:41:08.948Z,13.38
2019-05-14T07:42:06.363Z,13.37
2019-05-14T07:43:08.843Z,13.41
2019-05-14T07:44:06.277Z,13.36
2019-05-14T07:45:06.255Z,13.29
2019-05-14T07:46:08.294Z,13.91
2019-05-14T07:47:08.159Z,14.19
2019-05-14T07:48:08.732Z,15.28
2019-05-14T07:49:09.320Z,14.81
2019-05-14T07:50:08.608Z,14.35
2019-05-14T07:51:08.785Z,14.25
2019-05-14T07:52:06.179Z,13.71
2019-05-14T07:53:08.548Z,13.40
2019-05-14T07:54:08.159Z,13.09
2019-05-14T07:55:06.139Z,13.11
2019-05-14T07:56:06.129Z,14.46
2019-05-14T07:57:08.459Z,14.44
2019-05-14T07:58:08.196Z,14.64
2019-05-14T07:59:06.102Z,14.65
2019-05-14T08:00:08.065Z,14.91
2019-05-14T08:01:06.070Z,14.17
2019-05-14T08:02:06.061Z,13.61
2019-05-14T08:03:08.110Z,13.59
2019-05-14T08:04:10.135Z,13.52
2019-05-14T08:05:06.031Z,13.33
2019-05-14T08:06:08.191Z,13.20
2019-05-14T08:07:08.711Z,13.06
2019-05-14T08:08:07.943Z,12.96
2019-05-14T08:09:08.446Z,13.41
2019-05-14T08:10:05.968Z,14.75
2019-05-14T08:11:08.428Z,14.17
2019-05-14T08:12:06.011Z,13.99
2019-05-14T08:13:08.324Z,15.09
2019-05-14T08:14:05.926Z,15.78
2019-05-14T08:15:15.408Z,16.01
2019-05-14T08:16:08.919Z,15.36
2019-05-14T08:17:08.463Z,16.25
2019-05-14T08:18:08.132Z,15.01
2019-05-14T08:19:20.950Z,14.61
2019-05-14T08:20:08.875Z,15.51
2019-05-14T08:21:08.282Z,16.59
2019-05-14T08:22:05.826Z,16.33
2019-05-14T08:23:05.825Z,15.82
2019-05-14T08:24:08.688Z,15.12
2019-05-14T08:25:05.794Z,14.53
2019-05-14T08:26:07.795Z,13.92
2019-05-14T08:27:05.771Z,15.03
2019-05-14T08:28:07.972Z,15.84
2019-05-14T08:29:05.754Z,14.61
2019-05-14T08:30:08.092Z,13.76
2019-05-14T08:31:05.726Z,13.38
2019-05-14T08:32:05.732Z,13.03
2019-05-14T08:33:05.700Z,13.22
2019-05-14T08:34:06.680Z,13.32
2019-05-14T08:35:05.697Z,13.63
2019-05-14T08:36:05.740Z,14.67
2019-05-14T08:37:05.654Z,13.95
2019-05-14T08:38:11.359Z,13.17
2019-05-14T08:39:08.638Z,13.07
2019-05-14T08:40:05.641Z,12.97
2019-05-14T08:41:08.198Z,13.04
2019-05-14T08:42:08.299Z,13.09
2019-05-14T08:43:05.587Z,13.54
2019-05-14T08:44:05.575Z,13.70
2019-05-14T08:45:10.558Z,13.71
2019-05-14T08:46:08.176Z,13.71
2019-05-14T08:47:05.544Z,15.02
2019-05-14T08:48:05.614Z,14.44
2019-05-14T08:49:05.516Z,14.07
2019-05-14T08:50:05.506Z,13.49
2019-05-14T08:51:05.494Z,13.21
2019-05-14T08:52:05.480Z,12.85
2019-05-14T08:53:05.485Z,12.82
2019-05-14T08:54:05.534Z,14.17
2019-05-14T08:55:10.083Z,15.28
2019-05-14T08:56:08.374Z,15.28
2019-05-14T08:57:05.490Z,15.64
2019-05-14T08:58:10.381Z,15.01
2019-05-14T08:59:08.650Z,14.17
2019-05-14T09:00:05.406Z,15.17
2019-05-14T09:01:05.377Z,16.56
2019-05-14T09:02:06.481Z,16.99
2019-05-14T09:03:05.361Z,16.41
2019-05-14T09:04:05.343Z,15.93
2019-05-14T09:05:07.075Z,16.20
2019-05-14T09:06:05.335Z,14.95
2019-05-14T09:07:05.312Z,15.05
2019-05-14T09:08:05.297Z,15.94
2019-05-14T09:09:05.286Z,17.00
2019-05-14T09:10:05.280Z,17.69
2019-05-14T09:11:05.344Z,16.35
2019-05-14T09:12:05.262Z,15.30
2019-05-14T09:13:05.243Z,14.69
2019-05-14T09:14:05.252Z,15.43
2019-05-14T09:15:05.219Z,15.06
2019-05-14T09:16:05.206Z,14.67
2019-05-14T09:17:05.280Z,14.34
2019-05-14T09:18:05.200Z,14.95
2019-05-14T09:19:05.175Z,14.94
2019-05-14T09:20:07.164Z,14.64
2019-05-14T09:21:05.153Z,14.71
2019-05-14T09:22:05.144Z,14.44
2019-05-14T09:23:05.203Z,14.39
2019-05-14T09:24:05.119Z,14.69
2019-05-14T09:25:05.108Z,16.18
2019-05-14T09:26:05.100Z,16.93
2019-05-14T09:27:05.553Z,17.97
2019-05-14T09:28:05.075Z,18.27
2019-05-14T09:29:18.419Z,18.52
2019-05-14T09:30:06.049Z,18.73
2019-05-14T09:31:05.046Z,18.74
2019-05-14T09:32:05.030Z,18.34
2019-05-14T09:33:05.029Z,17.62
2019-05-14T09:34:05.004Z,17.33
2019-05-14T09:35:05.066Z,17.14
2019-05-14T09:36:14.861Z,16.98
2019-05-14T09:37:08.405Z,15.97
2019-05-14T09:38:04.963Z,15.17
2019-05-14T09:39:04.945Z,14.75
2019-05-14T09:40:04.935Z,15.01
2019-05-14T09:41:11.167Z,16.62
2019-05-14T09:42:07.961Z,16.55
2019-05-14T09:43:04.902Z,16.68
2019-05-14T09:44:04.889Z,15.97
2019-05-14T09:45:04.889Z,15.85
2019-05-14T09:46:04.866Z,15.92
2019-05-14T09:47:04.942Z,16.07
2019-05-14T09:48:04.846Z,15.96
2019-05-14T09:49:04.840Z,16.18
2019-05-14T09:50:16.406Z,15.59
2019-05-14T09:51:05.815Z,15.89
2019-05-14T09:52:04.797Z,15.39
2019-05-14T09:53:04.864Z,15.09
2019-05-14T09:54:04.778Z,15.08
2019-05-14T09:55:04.776Z,15.12
2019-05-14T09:56:04.754Z,15.39
2019-05-14T09:57:04.748Z,15.46
2019-05-14T09:58:04.731Z,15.17
2019-05-14T09:59:04.801Z,15.06
2019-05-14T10:00:04.707Z,14.39
2019-05-14T10:01:04.697Z,14.20
2019-05-14T10:02:04.688Z,14.17
2019-05-14T10:03:04.685Z,14.13
2019-05-14T10:04:04.673Z,13.88
2019-05-14T10:05:04.725Z,13.83
2019-05-14T10:06:04.638Z,13.89
2019-05-14T10:07:04.629Z,14.07
2019-05-14T10:08:04.621Z,14.14
2019-05-14T10:09:04.610Z,14.31
2019-05-14T10:10:04.601Z,14.80
2019-05-14T10:11:04.662Z,14.98
2019-05-14T10:12:04.568Z,15.02
2019-05-14T10:13:04.558Z,16.22
2019-05-14T10:14:04.550Z,16.34
2019-05-14T10:15:04.537Z,15.56
2019-05-14T10:16:04.525Z,15.09
2019-05-14T10:17:04.586Z,14.68
2019-05-14T10:18:04.501Z,14.20
2019-05-14T10:19:04.489Z,13.91
2019-05-14T10:20:04.490Z,13.76
2019-05-14T10:21:04.474Z,13.52
2019-05-14T10:22:04.458Z,13.25
2019-05-14T10:23:04.516Z,13.25
2019-05-14T10:24:04.446Z,13.24
2019-05-14T10:25:04.430Z,13.46
2019-05-14T10:26:04.408Z,13.41
2019-05-14T10:27:04.398Z,13.09
2019-05-14T10:28:04.391Z,13.29
2019-05-14T10:29:04.438Z,13.37
2019-05-14T10:30:04.381Z,13.36
2019-05-14T10:31:04.364Z,13.33
2019-05-14T10:32:04.345Z,13.49
2019-05-14T10:33:09.542Z,13.63
2019-05-14T10:34:05.401Z,13.65
2019-05-14T10:35:04.310Z,13.81
2019-05-14T10:36:04.294Z,14.38
2019-05-14T10:37:04.297Z,14.42
2019-05-14T10:38:04.272Z,14.60
2019-05-14T10:39:04.261Z,15.36
2019-05-14T10:40:04.323Z,15.76
2019-05-14T10:41:04.237Z,15.54
2019-05-14T10:42:04.227Z,15.19
2019-05-14T10:43:04.223Z,15.23
2019-05-14T10:44:04.209Z,15.17
2019-05-14T10:45:04.202Z,15.05
2019-05-14T10:46:04.246Z,15.02
2019-05-14T10:47:04.175Z,14.75
2019-05-14T10:48:04.168Z,14.50
2019-05-14T10:49:16.319Z,14.43
2019-05-14T10:50:05.132Z,14.38
2019-05-14T10:51:04.130Z,14.50
2019-05-14T10:52:04.172Z,14.49
2019-05-14T10:53:04.097Z,14.65
2019-05-14T10:54:18.878Z,14.46
2019-05-14T10:55:05.080Z,14.61
2019-05-14T10:56:04.063Z,14.49
2019-05-14T10:57:04.051Z,14.44
2019-05-14T10:58:04.101Z,14.44
2019-05-14T10:59:04.034Z,14.27
2019-05-14T11:00:04.031Z,14.44
2019-05-14T11:01:04.062Z,14.44
2019-05-14T11:02:03.998Z,14.44
2019-05-14T11:03:03.982Z,14.69
2019-05-14T11:04:04.030Z,15.09
2019-05-14T11:05:03.958Z,15.51
2019-05-14T11:06:03.956Z,16.31
2019-05-14T11:07:03.936Z,16.62
2019-05-14T11:08:03.922Z,16.23
2019-05-14T11:09:03.915Z,16.49
2019-05-14T11:10:04.084Z,16.62
2019-05-14T11:11:04.438Z,16.40
2019-05-14T11:12:03.894Z,16.30
2019-05-14T11:13:03.866Z,16.12
2019-05-14T11:14:03.859Z,16.07
2019-05-14T11:15:03.845Z,16.12
2019-05-14T11:16:03.902Z,16.44
2019-05-14T11:17:03.826Z,16.44
2019-05-14T11:18:03.818Z,16.35
2019-05-14T11:19:03.814Z,16.23
2019-05-14T11:20:03.787Z,16.50
2019-05-14T11:21:18.834Z,16.40
2019-05-14T11:22:04.839Z,15.99
2019-05-14T11:23:03.761Z,15.79
2019-05-14T11:24:03.749Z,15.92
2019-05-14T11:25:03.738Z,15.54
2019-05-14T11:26:03.732Z,15.38
2019-05-14T11:27:03.715Z,15.31
2019-05-14T11:28:03.764Z,15.24
2019-05-14T11:29:03.694Z,15.05
2019-05-14T11:30:03.681Z,14.99
2019-05-14T11:31:03.666Z,15.52
2019-05-14T11:32:03.668Z,16.78
2019-05-14T11:33:03.646Z,18.09
2019-05-14T11:34:03.703Z,19.11
2019-05-14T11:35:03.622Z,19.79
2019-05-14T11:36:03.610Z,20.08
2019-05-14T11:37:03.595Z,19.65
2019-05-14T11:38:03.613Z,19.40
2019-05-14T11:39:04.193Z,19.58
2019-05-14T11:40:03.645Z,19.50
2019-05-14T11:41:03.556Z,18.15
2019-05-14T11:42:03.538Z,17.04
2019-05-14T11:43:03.531Z,16.01
2019-05-14T11:44:03.531Z,15.31
2019-05-14T11:45:03.526Z,15.23
2019-05-14T11:46:03.553Z,15.11
2019-05-14T11:47:03.485Z,17.15
2019-05-14T11:48:03.475Z,18.57
2019-05-14T11:49:03.461Z,19.87
2019-05-14T11:50:03.467Z,20.20
2019-05-14T11:51:03.482Z,20.43
2019-05-14T11:52:07.897Z,20.90
2019-05-14T11:53:04.415Z,21.17
2019-05-14T11:54:03.409Z,21.23
2019-05-14T11:55:03.455Z,20.66
2019-05-14T11:56:03.384Z,19.86
2019-05-14T11:57:03.390Z,19.57
2019-05-14T11:58:03.419Z,19.55
2019-05-14T11:59:03.348Z,19.46
2019-05-14T12:00:03.342Z,19.15
2019-05-14T12:01:03.323Z,19.83
2019-05-14T12:02:03.314Z,19.76
2019-05-14T12:03:03.312Z,19.55
2019-05-14T12:04:03.356Z,20.08
2019-05-14T12:05:03.280Z,21.23
2019-05-14T12:06:03.268Z,21.39
2019-05-14T12:07:03.268Z,21.39
2019-05-14T12:08:03.248Z,21.94
2019-05-14T12:09:03.251Z,20.33
2019-05-14T12:10:03.307Z,18.61
2019-05-14T12:11:03.218Z,17.53
2019-05-14T12:12:03.221Z,16.70
2019-05-14T12:13:03.191Z,17.85
2019-05-14T12:14:03.180Z,19.13
2019-05-14T12:15:03.177Z,18.80
2019-05-14T12:16:03.232Z,19.60
2019-05-14T12:17:03.146Z,20.49
2019-05-14T12:18:03.138Z,19.78
2019-05-14T12:19:03.141Z,20.53
2019-05-14T12:20:03.122Z,20.09
2019-05-14T12:21:03.126Z,19.06
2019-05-14T12:22:07.415Z,19.28
2019-05-14T12:23:04.078Z,19.32
2019-05-14T12:24:05.611Z,19.84
2019-05-14T12:25:03.063Z,19.66
2019-05-14T12:26:03.051Z,20.27
2019-05-14T12:27:03.046Z,21.14
2019-05-14T12:28:03.126Z,21.27
2019-05-14T12:29:03.021Z,20.93
2019-05-14T12:30:03.035Z,19.51
2019-05-14T12:31:02.992Z,18.95
2019-05-14T12:32:03.123Z,18.37
2019-05-14T12:33:03.017Z,18.59
2019-05-14T12:34:03.030Z,17.91
2019-05-14T12:35:02.973Z,18.31
2019-05-14T12:36:02.956Z,18.80
2019-05-14T12:37:02.926Z,18.76
2019-05-14T12:38:02.916Z,17.97
2019-05-14T12:39:02.907Z,18.94
2019-05-14T12:40:02.953Z,19.66
2019-05-14T12:41:02.897Z,20.28
2019-05-14T12:42:02.877Z,21.02
2019-05-14T12:43:02.862Z,21.42
2019-05-14T12:44:02.844Z,21.67
2019-05-14T12:45:02.834Z,20.80
2019-05-14T12:46:02.886Z,20.25
2019-05-14T12:47:02.839Z,20.18
2019-05-14T12:48:02.813Z,20.38
2019-05-14T12:49:02.789Z,20.18
2019-05-14T12:50:02.779Z,19.55
2019-05-14T12:51:02.771Z,18.19
2019-05-14T12:52:17.845Z,17.25
2019-05-14T12:53:03.817Z,16.77
2019-05-14T12:54:02.735Z,16.80
2019-05-14T12:55:02.725Z,17.40
2019-05-14T12:56:02.713Z,18.54
2019-05-14T12:57:02.705Z,17.78
2019-05-14T12:58:02.756Z,17.69
2019-05-14T12:59:02.683Z,18.90
2019-05-14T13:00:02.674Z,19.57
2019-05-14T13:01:02.659Z,20.06
2019-05-14T13:02:02.648Z,20.15
2019-05-14T13:03:02.636Z,18.47